createdAt,value
2023-03-12T00:01:21.573Z,1.06
2023-03-12T00:03:50.064Z,1.05
2023-03-12T00:06:19.814Z,1.04
2023-03-12T00:08:48.850Z,1.04
2023-03-12T00:11:19.625Z,1.06
2023-03-12T00:13:54.160Z,1.07
2023-03-12T00:16:23.100Z,1.11
2023-03-12T00:18:53.406Z,1.12
2023-03-12T00:21:22.191Z,1.10
2023-03-12T00:23:51.383Z,1.08
2023-03-12T00:26:21.355Z,1.06
2023-03-12T00:28:50.798Z,1.03
2023-03-12T00:31:27.093Z,1.05
2023-03-12T00:33:56.018Z,1.07
2023-03-12T00:36:26.726Z,1.08
2023-03-12T00:38:55.995Z,1.04
2023-03-12T00:41:25.629Z,1.03
2023-03-12T00:43:53.684Z,1.04
2023-03-12T00:46:22.204Z,1.05
2023-03-12T00:48:50.421Z,1.06
2023-03-12T00:51:18.744Z,1.04
2023-03-12T00:53:47.037Z,1.05
2023-03-12T00:56:15.676Z,1.02
2023-03-12T00:58:43.768Z,0.99
2023-03-12T01:01:11.803Z,0.95
2023-03-12T01:03:39.858Z,0.94
2023-03-12T01:06:07.676Z,0.90
2023-03-12T01:08:35.410Z,0.86
2023-03-12T01:11:03.721Z,0.80
2023-03-12T01:13:31.715Z,0.72
2023-03-12T01:15:59.416Z,0.63
2023-03-12T01:18:27.361Z,0.58
2023-03-12T01:20:55.173Z,0.53
2023-03-12T01:23:22.782Z,0.46
2023-03-12T01:25:51.533Z,0.40
2023-03-12T01:28:19.435Z,0.38
2023-03-12T01:30:47.200Z,0.33
2023-03-12T01:33:16.126Z,0.30
2023-03-12T01:35:44.291Z,0.29
2023-03-12T01:38:15.398Z,0.28
2023-03-12T01:40:44.474Z,0.28
2023-03-12T01:43:26.973Z,0.30
2023-03-12T01:46:30.529Z,0.32
2023-03-12T01:49:30.047Z,0.33
2023-03-12T01:52:06.420Z,0.35
2023-03-12T01:55:05.556Z,0.37
2023-03-12T01:57:53.433Z,0.37
2023-03-12T02:00:24.992Z,0.43
2023-03-12T02:03:01.823Z,0.50
2023-03-12T02:05:52.971Z,0.53
2023-03-12T02:08:23.484Z,0.57
2023-03-12T02:10:51.511Z,0.60
2023-03-12T02:13:19.405Z,0.60
2023-03-12T02:15:48.000Z,0.58
2023-03-12T02:18:18.814Z,0.59
2023-03-12T02:21:16.074Z,0.62
2023-03-12T02:24:07.165Z,0.60
2023-03-12T02:26:37.559Z,0.61
2023-03-12T02:29:07.088Z,0.58
2023-03-12T02:31:45.662Z,0.60
2023-03-12T02:34:13.696Z,0.62
2023-03-12T02:36:41.632Z,0.63
2023-03-12T02:39:12.339Z,0.64
2023-03-12T02:41:48.109Z,0.62
2023-03-12T02:44:22.597Z,0.61
2023-03-12T02:46:54.512Z,0.59
2023-03-12T02:49:27.428Z,0.57
2023-03-12T02:51:55.340Z,0.54
2023-03-12T02:54:23.820Z,0.53
2023-03-12T02:56:52.209Z,0.53
2023-03-12T02:59:24.343Z,0.50
2023-03-12T03:01:56.320Z,0.46
2023-03-12T03:04:25.131Z,0.47
2023-03-12T03:06:53.002Z,0.45
2023-03-12T03:09:21.961Z,0.43
2023-03-12T03:11:50.488Z,0.44
2023-03-12T03:14:19.714Z,0.44
2023-03-12T03:16:49.866Z,0.41
2023-03-12T03:19:18.032Z,0.41
2023-03-12T03:22:04.287Z,0.43
2023-03-12T03:24:53.747Z,0.42
2023-03-12T03:27:21.399Z,0.36
2023-03-12T03:29:52.048Z,0.33
2023-03-12T03:32:20.100Z,0.32
2023-03-12T03:34:48.003Z,0.28
2023-03-12T03:37:16.547Z,0.22
2023-03-12T03:39:44.411Z,0.20
2023-03-12T03:42:12.482Z,0.19
2023-03-12T03:44:40.576Z,0.18
2023-03-12T03:47:08.271Z,0.16
2023-03-12T03:49:35.958Z,0.14
2023-03-12T03:52:03.859Z,0.14
2023-03-12T03:54:33.410Z,0.14
2023-03-12T03:57:01.667Z,0.14
2023-03-12T03:59:29.499Z,0.15
2023-03-12T04:01:57.885Z,0.15
2023-03-12T04:04:26.128Z,0.19
2023-03-12T04:06:53.744Z,0.22
2023-03-12T04:09:21.706Z,0.23
2023-03-12T04:11:49.407Z,0.27
2023-03-12T04:14:17.413Z,0.23
2023-03-12T04:16:45.711Z,0.20
2023-03-12T04:19:13.482Z,0.18
2023-03-12T04:21:41.321Z,0.19
2023-03-12T04:24:14.501Z,0.14
2023-03-12T04:26:42.375Z,0.10
2023-03-12T04:29:10.289Z,0.13
2023-03-12T04:31:38.207Z,0.15
2023-03-12T04:34:06.157Z,0.18
2023-03-12T04:36:34.002Z,0.19
2023-03-12T04:39:04.872Z,0.23
2023-03-12T04:41:34.656Z,0.28
2023-03-12T04:44:04.834Z,0.31
2023-03-12T04:46:34.383Z,0.32
2023-03-12T04:49:02.366Z,0.35
2023-03-12T04:51:31.477Z,0.37
2023-03-12T04:53:59.641Z,0.34
2023-03-12T04:56:28.023Z,0.34
2023-03-12T04:58:59.106Z,0.33
2023-03-12T05:01:32.445Z,0.30
2023-03-12T05:04:02.810Z,0.32
2023-03-12T05:06:30.677Z,0.32
2023-03-12T05:08:58.639Z,0.33
2023-03-12T05:11:26.600Z,0.30
2023-03-12T05:13:54.555Z,0.30
2023-03-12T05:16:24.139Z,0.34
2023-03-12T05:18:51.748Z,0.35
2023-03-12T05:21:21.496Z,0.36
2023-03-12T05:23:51.105Z,0.37
2023-03-12T05:26:26.160Z,0.37
2023-03-12T05:28:55.679Z,0.36
2023-03-12T05:31:24.680Z,0.41
2023-03-12T05:33:53.432Z,0.42
2023-03-12T05:36:21.946Z,0.41
2023-03-12T05:38:49.777Z,0.43
2023-03-12T05:41:27.969Z,0.42
2023-03-12T05:43:58.947Z,0.37
2023-03-12T05:46:28.343Z,0.37
2023-03-12T05:48:56.317Z,0.35
2023-03-12T05:51:24.545Z,0.39
2023-03-12T05:53:52.341Z,0.41
2023-03-12T05:56:20.647Z,0.42
2023-03-12T05:58:49.678Z,0.46
2023-03-12T06:01:25.911Z,0.51
2023-03-12T06:03:55.805Z,0.53
2023-03-12T06:06:25.075Z,0.53
2023-03-12T06:08:53.051Z,0.62
2023-03-12T06:11:25.939Z,0.68
2023-03-12T06:13:53.699Z,1.00
2023-03-12T06:16:24.420Z,1.66
2023-03-12T06:18:57.635Z,2.36
2023-03-12T06:21:28.904Z,2.85
2023-03-12T06:23:56.989Z,3.17
2023-03-12T06:26:36.112Z,3.47
2023-03-12T06:29:03.842Z,3.85
2023-03-12T06:31:31.463Z,4.06
2023-03-12T06:33:59.056Z,4.01
2023-03-12T06:36:35.223Z,4.01
2023-03-12T06:39:05.462Z,3.87
2023-03-12T06:41:33.396Z,3.54
2023-03-12T06:44:13.818Z,3.41
2023-03-12T06:46:42.969Z,3.34
2023-03-12T06:49:13.554Z,3.29
2023-03-12T06:51:48.175Z,3.15
2023-03-12T06:54:16.367Z,3.00
2023-03-12T06:56:45.578Z,2.90
2023-03-12T06:59:15.933Z,2.85
2023-03-12T07:01:43.413Z,2.86
2023-03-12T07:04:11.322Z,2.75
2023-03-12T07:06:39.010Z,2.73
2023-03-12T07:09:08.159Z,2.70
2023-03-12T07:11:35.972Z,2.68
2023-03-12T07:14:03.818Z,2.68
2023-03-12T07:16:49.408Z,2.74
2023-03-12T07:19:18.999Z,2.80
2023-03-12T07:22:04.796Z,2.81
2023-03-12T07:24:33.678Z,2.86
2023-03-12T07:27:01.442Z,3.08
2023-03-12T07:29:30.393Z,3.59
2023-03-12T07:31:58.474Z,4.15
2023-03-12T07:34:26.763Z,4.69
2023-03-12T07:36:55.943Z,4.88
2023-03-12T07:39:23.877Z,4.91
2023-03-12T07:41:51.901Z,4.90
2023-03-12T07:44:20.116Z,4.78
2023-03-12T07:46:49.718Z,4.78
2023-03-12T07:49:17.392Z,4.95
2023-03-12T07:51:47.520Z,5.18
2023-03-12T07:54:15.497Z,5.31
2023-03-12T07:56:46.117Z,5.24
2023-03-12T07:59:14.139Z,5.30
2023-03-12T08:01:44.593Z,5.31
2023-03-12T08:04:12.298Z,5.36
2023-03-12T08:06:42.433Z,5.46
2023-03-12T08:09:11.106Z,5.89
2023-03-12T08:11:39.246Z,6.24
2023-03-12T08:14:07.139Z,6.27
2023-03-12T08:16:34.971Z,5.94
2023-03-12T08:19:03.004Z,5.71
2023-03-12T08:21:30.989Z,5.55
2023-03-12T08:23:58.509Z,5.40
2023-03-12T08:26:26.676Z,5.18
2023-03-12T08:28:54.460Z,4.87
2023-03-12T08:31:22.624Z,4.80
2023-03-12T08:33:52.994Z,5.20
2023-03-12T08:36:32.849Z,5.66
2023-03-12T08:39:04.842Z,6.08
2023-03-12T08:41:38.422Z,6.04
2023-03-12T08:44:06.295Z,5.78
2023-03-12T08:46:34.616Z,5.59
2023-03-12T08:49:02.239Z,5.32
2023-03-12T08:51:30.562Z,5.07
2023-03-12T08:53:58.396Z,4.97
2023-03-12T08:56:26.176Z,5.01
2023-03-12T08:58:54.251Z,5.45
2023-03-12T09:01:21.917Z,5.69
2023-03-12T09:03:53.042Z,5.92
2023-03-12T09:06:21.554Z,6.04
2023-03-12T09:08:51.141Z,6.06
2023-03-12T09:11:19.064Z,5.96
2023-03-12T09:16:16.834Z,5.90
2023-03-12T09:18:44.531Z,5.90
2023-03-12T09:21:12.646Z,5.92
2023-03-12T09:23:40.779Z,5.89
2023-03-12T09:26:13.229Z,5.89
2023-03-12T09:28:42.320Z,5.89
2023-03-12T09:31:10.487Z,5.86
2023-03-12T09:33:38.387Z,5.90
2023-03-12T09:36:06.600Z,6.01
2023-03-12T09:38:37.252Z,6.40
2023-03-12T09:41:10.088Z,6.89
2023-03-12T09:43:46.618Z,7.37
2023-03-12T09:46:49.530Z,7.49
2023-03-12T09:49:34.378Z,7.56
2023-03-12T09:52:10.288Z,7.34
2023-03-12T09:54:47.560Z,7.25
2023-03-12T09:57:23.393Z,7.26
2023-03-12T10:00:10.638Z,7.49
2023-03-12T10:03:13.548Z,7.52
2023-03-12T10:05:51.596Z,7.68
2023-03-12T10:08:54.345Z,7.75
2023-03-12T10:11:57.091Z,7.77
2023-03-12T10:14:50.966Z,7.60
2023-03-12T10:17:57.781Z,7.69
2023-03-12T10:20:54.820Z,7.91
2023-03-12T10:23:56.406Z,7.97
2023-03-12T10:26:40.933Z,8.34
2023-03-12T10:29:26.062Z,8.62
2023-03-12T10:32:17.433Z,8.80
2023-03-12T10:35:05.863Z,8.94
2023-03-12T10:37:39.453Z,8.84
2023-03-12T10:40:14.207Z,8.72
2023-03-12T10:42:42.601Z,8.44
2023-03-12T10:45:18.759Z,8.07
2023-03-12T10:47:51.233Z,7.73
2023-03-12T10:50:23.232Z,7.56
2023-03-12T10:53:14.431Z,7.38
2023-03-12T10:56:19.612Z,7.24
2023-03-12T10:58:53.693Z,7.40
2023-03-12T11:01:25.777Z,7.76
2023-03-12T11:04:18.003Z,7.89
2023-03-12T11:07:18.476Z,8.09
2023-03-12T11:09:50.342Z,8.38
2023-03-12T11:12:30.764Z,8.62
2023-03-12T11:14:59.198Z,8.81
2023-03-12T11:17:29.304Z,9.08
2023-03-12T11:19:57.001Z,9.12
2023-03-12T11:22:34.228Z,9.20
2023-03-12T11:25:06.463Z,9.10
2023-03-12T11:27:49.067Z,8.92
2023-03-12T11:30:24.826Z,8.84
2023-03-12T11:32:53.181Z,8.56
2023-03-12T11:35:37.715Z,8.55
2023-03-12T11:38:23.514Z,8.55
2023-03-12T11:41:02.038Z,8.69
2023-03-12T11:43:43.582Z,8.85
2023-03-12T11:46:25.226Z,8.90
2023-03-12T11:49:07.339Z,9.03
2023-03-12T11:51:46.503Z,9.10
2023-03-12T11:54:31.474Z,8.90
2023-03-12T11:57:04.425Z,8.77
2023-03-12T11:59:46.567Z,8.92
2023-03-12T12:02:43.018Z,9.01
2023-03-12T12:05:38.578Z,9.18
2023-03-12T12:08:34.065Z,9.30
2023-03-12T12:11:30.454Z,9.41
2023-03-12T12:14:27.667Z,9.50
2023-03-12T12:17:29.835Z,9.44
2023-03-12T12:20:36.059Z,9.51
2023-03-12T12:23:26.930Z,9.51
2023-03-12T12:26:14.037Z,9.63
2023-03-12T12:29:05.037Z,9.50
2023-03-12T12:31:40.246Z,9.23
2023-03-12T12:34:26.502Z,9.18
2023-03-12T12:37:14.973Z,9.05
2023-03-12T12:40:00.353Z,8.88
2023-03-12T12:42:31.909Z,8.99
2023-03-12T12:45:02.242Z,8.98
2023-03-12T12:47:38.169Z,8.99
2023-03-12T12:50:09.321Z,9.02
2023-03-12T12:52:37.196Z,9.05
2023-03-12T12:55:34.782Z,9.00
2023-03-12T12:58:42.847Z,9.02
2023-03-12T13:01:11.455Z,9.03
2023-03-12T13:03:39.325Z,9.04
2023-03-12T13:06:08.441Z,9.00
2023-03-12T13:08:44.308Z,8.94
2023-03-12T13:11:29.114Z,8.94
2023-03-12T13:14:11.622Z,8.83
2023-03-12T13:16:42.598Z,8.68
2023-03-12T13:19:24.803Z,8.65
2023-03-12T13:22:12.646Z,8.65
2023-03-12T13:25:00.503Z,8.69
2023-03-12T13:27:33.238Z,8.74
2023-03-12T13:30:36.750Z,8.70
2023-03-12T13:33:08.363Z,8.51
2023-03-12T13:35:38.925Z,8.23
2023-03-12T13:38:12.295Z,8.17
2023-03-12T13:40:54.073Z,8.24
2023-03-12T13:43:38.659Z,8.29
2023-03-12T13:46:17.697Z,8.26
2023-03-12T13:48:47.862Z,8.23
2023-03-12T13:51:23.194Z,8.18
2023-03-12T13:53:56.482Z,8.19
2023-03-12T13:56:28.614Z,8.20
2023-03-12T13:59:10.289Z,8.13
2023-03-12T14:01:48.317Z,8.04
2023-03-12T14:04:23.485Z,7.86
2023-03-12T14:07:14.822Z,7.73
2023-03-12T14:10:09.225Z,7.72
2023-03-12T14:12:42.383Z,7.76
2023-03-12T14:15:21.432Z,7.77
2023-03-12T14:18:00.070Z,7.75
2023-03-12T14:20:35.880Z,7.53
2023-03-12T14:23:09.294Z,7.35
2023-03-12T14:25:43.998Z,7.33
2023-03-12T14:28:21.886Z,7.35
2023-03-12T14:31:14.671Z,7.39
2023-03-12T14:33:54.026Z,7.40
2023-03-12T14:36:26.926Z,7.34
2023-03-12T14:39:00.276Z,7.29
2023-03-12T14:41:32.213Z,7.26
2023-03-12T14:44:25.463Z,7.14
2023-03-12T14:47:12.747Z,7.05
2023-03-12T14:49:47.739Z,6.90
2023-03-12T14:52:27.445Z,6.81
2023-03-12T14:55:04.046Z,6.69
2023-03-12T14:57:34.880Z,6.60
2023-03-12T15:00:07.051Z,6.47
2023-03-12T15:02:39.233Z,6.41
2023-03-12T15:05:16.822Z,6.39
2023-03-12T15:07:46.623Z,6.32
2023-03-12T15:10:24.785Z,6.25
2023-03-12T15:12:59.163Z,6.16
2023-03-12T15:15:42.890Z,6.11
2023-03-12T15:18:24.177Z,6.06
2023-03-12T15:20:57.245Z,6.00
2023-03-12T15:23:32.243Z,5.89
2023-03-12T15:26:27.371Z,5.83
2023-03-12T15:29:31.182Z,5.81
2023-03-12T15:32:00.565Z,5.70
2023-03-12T15:34:40.581Z,5.61
2023-03-12T15:37:38.401Z,5.56
2023-03-12T15:40:21.982Z,5.51
2023-03-12T15:42:50.274Z,5.43
2023-03-12T15:45:28.872Z,5.38
2023-03-12T15:47:56.622Z,5.32
2023-03-12T15:50:40.620Z,5.29
2023-03-12T15:53:19.805Z,5.25
2023-03-12T15:56:16.360Z,5.20
2023-03-12T15:58:45.448Z,5.17
2023-03-12T16:01:20.540Z,5.13
2023-03-12T16:03:48.433Z,5.12
2023-03-12T16:06:19.642Z,5.10
2023-03-12T16:08:56.090Z,5.04
2023-03-12T16:11:28.203Z,4.99
2023-03-12T16:14:30.773Z,4.90
2023-03-12T16:16:58.917Z,4.81
2023-03-12T16:19:30.385Z,4.70
2023-03-12T16:22:00.416Z,4.62
2023-03-12T16:24:28.576Z,4.50
2023-03-12T16:26:58.701Z,4.41
2023-03-12T16:29:35.702Z,4.33
2023-03-12T16:32:15.057Z,4.25
2023-03-12T16:34:44.942Z,4.18
2023-03-12T16:37:12.974Z,4.10
2023-03-12T16:39:43.075Z,4.02
2023-03-12T16:42:15.791Z,3.96
2023-03-12T16:44:46.256Z,3.92
2023-03-12T16:47:14.843Z,3.86
2023-03-12T16:49:44.424Z,3.81
2023-03-12T16:52:22.262Z,3.73
2023-03-12T16:54:51.426Z,3.65
2023-03-12T16:57:33.848Z,3.58
2023-03-12T17:00:07.391Z,3.51
2023-03-12T17:02:35.880Z,3.46
2023-03-12T17:05:03.965Z,3.41
2023-03-12T17:07:31.988Z,3.35
2023-03-12T17:09:59.764Z,3.29
2023-03-12T17:12:36.025Z,3.26
2023-03-12T17:15:09.854Z,3.21
2023-03-12T17:17:37.847Z,3.17
2023-03-12T17:20:12.459Z,3.13
2023-03-12T17:22:40.877Z,3.10
2023-03-12T17:25:16.715Z,3.04
2023-03-12T17:27:44.645Z,2.97
2023-03-12T17:30:13.275Z,2.92
2023-03-12T17:32:42.550Z,2.84
2023-03-12T17:35:11.407Z,2.77
2023-03-12T17:37:41.224Z,2.71
2023-03-12T17:40:10.590Z,2.62
2023-03-12T17:42:39.068Z,2.56
2023-03-12T17:45:09.626Z,2.52
2023-03-12T17:47:39.002Z,2.46
2023-03-12T17:50:08.190Z,2.41
2023-03-12T17:52:36.208Z,2.37
2023-03-12T17:55:05.574Z,2.34
2023-03-12T17:57:33.593Z,2.31
2023-03-12T18:00:07.096Z,2.28
2023-03-12T18:02:36.632Z,2.25
2023-03-12T18:05:07.099Z,2.22
2023-03-12T18:07:34.992Z,2.19
2023-03-12T18:10:05.909Z,2.15
2023-03-12T18:12:34.603Z,2.09
2023-03-12T18:15:02.531Z,2.01
2023-03-12T18:17:30.786Z,1.90
2023-03-12T18:19:58.598Z,1.82
2023-03-12T18:22:26.344Z,1.77
2023-03-12T18:24:54.271Z,1.73
2023-03-12T18:27:22.232Z,1.68
2023-03-12T18:29:50.256Z,1.64
2023-03-12T18:32:17.558Z,1.61
2023-03-12T18:34:45.004Z,1.60
2023-03-12T18:37:12.852Z,1.56
2023-03-12T18:39:55.999Z,1.52
2023-03-12T18:42:25.048Z,1.45
2023-03-12T18:44:53.159Z,1.39
2023-03-12T18:47:21.112Z,1.28
2023-03-12T18:49:51.128Z,1.17
2023-03-12T18:52:19.237Z,1.02
2023-03-12T18:54:47.171Z,0.93
2023-03-12T18:57:15.274Z,0.89
2023-03-12T18:59:45.375Z,0.83
2023-03-12T19:02:13.082Z,0.90
2023-03-12T19:04:41.050Z,0.86
2023-03-12T19:07:10.412Z,0.85
2023-03-12T19:09:38.898Z,0.83
2023-03-12T19:12:06.867Z,0.80
2023-03-12T19:14:34.757Z,0.78
2023-03-12T19:17:02.554Z,0.75
2023-03-12T19:19:30.617Z,0.72
2023-03-12T19:21:58.626Z,0.70
2023-03-12T19:24:27.519Z,0.65
2023-03-12T19:26:55.641Z,0.57
2023-03-12T19:29:25.318Z,0.52
2023-03-12T19:31:53.290Z,0.46
2023-03-12T19:34:24.923Z,0.42
2023-03-12T19:36:53.290Z,0.39
2023-03-12T19:39:22.677Z,0.38
2023-03-12T19:41:50.723Z,0.37
2023-03-12T19:44:18.774Z,0.36
2023-03-12T19:46:46.680Z,0.33
2023-03-12T19:49:14.650Z,0.28
2023-03-12T19:51:42.402Z,0.21
2023-03-12T19:54:10.470Z,0.19
2023-03-12T19:56:40.273Z,0.16
2023-03-12T19:59:08.367Z,0.11
2023-03-12T20:01:40.641Z,0.07
2023-03-12T20:04:12.984Z,0.04
2023-03-12T20:06:49.899Z,0.01
2023-03-12T20:09:17.646Z,-0.02
2023-03-12T20:11:56.213Z,-0.04
2023-03-12T20:14:25.108Z,-0.09
2023-03-12T20:16:52.903Z,-0.14
2023-03-12T20:19:20.906Z,-0.21
2023-03-12T20:21:49.870Z,-0.26
2023-03-12T20:24:17.776Z,-0.29
2023-03-12T20:26:45.709Z,-0.32
2023-03-12T20:29:13.461Z,-0.34
2023-03-12T20:31:42.907Z,-0.40
2023-03-12T20:34:10.939Z,-0.45
2023-03-12T20:36:39.032Z,-0.48
2023-03-12T20:39:08.756Z,-0.49
2023-03-12T20:41:36.276Z,-0.50
2023-03-12T20:44:04.181Z,-0.52
2023-03-12T20:46:31.887Z,-0.53
2023-03-12T20:49:01.472Z,-0.54
2023-03-12T20:51:29.189Z,-0.58
2023-03-12T20:54:01.590Z,-0.57
2023-03-12T20:56:30.885Z,-0.59
2023-03-12T20:58:59.009Z,-0.60
2023-03-12T21:01:27.191Z,-0.64
2023-03-12T21:03:58.687Z,-0.67
2023-03-12T21:06:26.848Z,-0.72
2023-03-12T21:08:58.761Z,-0.77
2023-03-12T21:11:26.637Z,-0.78
2023-03-12T21:13:54.559Z,-0.77
2023-03-12T21:16:23.771Z,-0.78
2023-03-12T21:18:56.859Z,-0.79
2023-03-12T21:21:25.451Z,-0.83
2023-03-12T21:23:53.271Z,-0.85
2023-03-12T21:26:22.818Z,-0.85
2023-03-12T21:28:50.662Z,-0.88
2023-03-12T21:31:18.722Z,-0.91
2023-03-12T21:33:48.308Z,-0.93
2023-03-12T21:36:16.374Z,-0.96
2023-03-12T21:38:44.119Z,-0.98
2023-03-12T21:41:15.279Z,-1.00
2023-03-12T21:43:44.038Z,-1.02
2023-03-12T21:46:23.228Z,-1.03
2023-03-12T21:48:52.285Z,-1.05
2023-03-12T21:51:22.028Z,-1.09
2023-03-12T21:53:54.781Z,-1.10
2023-03-12T21:56:25.016Z,-1.15
2023-03-12T21:58:52.769Z,-1.18
2023-03-12T22:01:20.639Z,-1.23
2023-03-12T22:03:48.480Z,-1.23
2023-03-12T22:06:17.174Z,-1.25
2023-03-12T22:08:49.502Z,-1.27
2023-03-12T22:11:17.618Z,-1.30
2023-03-12T22:13:45.460Z,-1.33
2023-03-12T22:16:14.525Z,-1.36
2023-03-12T22:18:45.903Z,-1.38
2023-03-12T22:21:19.067Z,-1.40
2023-03-12T22:23:50.073Z,-1.42
2023-03-12T22:26:20.132Z,-1.45
2023-03-12T22:28:50.608Z,-1.48
2023-03-12T22:31:19.852Z,-1.51
2023-03-12T22:33:48.292Z,-1.55
2023-03-12T22:36:17.625Z,-1.59
2023-03-12T22:38:47.155Z,-1.62
2023-03-12T22:41:28.043Z,-1.63
2023-03-12T22:44:03.551Z,-1.64
2023-03-12T22:46:31.525Z,-1.63
2023-03-12T22:49:01.942Z,-1.63
2023-03-12T22:51:32.166Z,-1.66
2023-03-12T22:54:00.516Z,-1.66
2023-03-12T22:56:29.022Z,-1.64
2023-03-12T22:58:58.857Z,-1.64
2023-03-12T23:01:26.799Z,-1.64
2023-03-12T23:03:54.524Z,-1.66
2023-03-12T23:06:26.390Z,-1.66
2023-03-12T23:08:54.889Z,-1.68
2023-03-12T23:11:24.789Z,-1.67
2023-03-12T23:13:54.236Z,-1.69
2023-03-12T23:16:24.712Z,-1.70
2023-03-12T23:18:52.885Z,-1.70
2023-03-12T23:21:23.448Z,-1.71
2023-03-12T23:23:51.739Z,-1.71
2023-03-12T23:26:26.275Z,-1.72
2023-03-12T23:28:57.380Z,-1.74
2023-03-12T23:31:27.207Z,-1.72
2023-03-12T23:33:56.583Z,-1.71
2023-03-12T23:36:24.846Z,-1.71
2023-03-12T23:38:52.694Z,-1.73
2023-03-12T23:41:24.188Z,-1.72
2023-03-12T23:43:52.711Z,-1.74
2023-03-12T23:46:20.404Z,-1.75
2023-03-12T23:48:48.738Z,-1.76
2023-03-12T23:51:26.540Z,-1.77
2023-03-12T23:54:04.831Z,-1.80
2023-03-12T23:56:38.588Z,-1.86
2023-03-12T23:59:08.800Z,-1.91
